createdAt,value
2022-10-07T00:00:18.255Z,83.78
2022-10-07T00:02:51.636Z,83.68
2022-10-07T00:05:25.121Z,83.63
2022-10-07T00:07:58.517Z,83.64
2022-10-07T00:10:31.833Z,83.61
2022-10-07T00:13:05.324Z,83.53
2022-10-07T00:15:38.392Z,83.35
2022-10-07T00:18:12.029Z,83.22
2022-10-07T00:20:45.616Z,83.21
2022-10-07T00:23:19.094Z,83.18
2022-10-07T00:25:52.532Z,83.08
2022-10-07T00:28:27.745Z,83.11
2022-10-07T00:31:02.127Z,83.11
2022-10-07T00:33:39.598Z,83.02
2022-10-07T00:36:15.539Z,83.01
2022-10-07T00:38:52.560Z,83.10
2022-10-07T00:41:28.258Z,82.94
2022-10-07T00:44:02.333Z,82.96
2022-10-07T00:46:37.333Z,82.95
2022-10-07T00:49:13.559Z,82.96
2022-10-07T00:51:47.262Z,83.09
2022-10-07T00:54:22.380Z,83.12
2022-10-07T00:56:55.920Z,83.21
2022-10-07T00:59:29.234Z,83.34
2022-10-07T01:02:03.188Z,83.43
2022-10-07T01:04:37.226Z,83.47
2022-10-07T01:07:12.100Z,83.47
2022-10-07T01:09:48.434Z,83.47
2022-10-07T01:12:27.108Z,83.46
2022-10-07T01:15:04.010Z,83.58
2022-10-07T01:17:40.665Z,83.66
2022-10-07T01:20:27.259Z,83.77
2022-10-07T01:23:22.268Z,83.82
2022-10-07T01:26:25.256Z,83.92
2022-10-07T01:29:01.962Z,83.98
2022-10-07T01:31:38.692Z,84.05
2022-10-07T01:34:14.870Z,84.18
2022-10-07T01:36:51.110Z,84.23
2022-10-07T01:39:27.746Z,84.27
2022-10-07T01:42:01.185Z,84.33
2022-10-07T01:44:35.113Z,84.34
2022-10-07T01:47:08.514Z,84.35
2022-10-07T01:49:41.918Z,84.42
2022-10-07T01:52:24.232Z,84.44
2022-10-07T01:55:27.150Z,84.50
2022-10-07T01:58:06.368Z,84.52
2022-10-07T02:00:43.237Z,84.57
2022-10-07T02:06:13.614Z,84.82
2022-10-07T02:08:50.164Z,84.75
2022-10-07T02:11:27.474Z,84.78
2022-10-07T02:14:07.955Z,84.75
2022-10-07T02:16:46.696Z,84.67
2022-10-07T02:19:23.291Z,84.54
2022-10-07T02:21:59.545Z,84.50
2022-10-07T02:24:36.483Z,84.32
2022-10-07T02:27:14.247Z,84.29
2022-10-07T02:29:49.499Z,84.25
2022-10-07T02:32:25.555Z,84.26
2022-10-07T02:35:03.386Z,84.28
2022-10-07T02:37:39.664Z,84.43
2022-10-07T02:40:13.267Z,84.47
2022-10-07T02:42:51.906Z,84.62
2022-10-07T02:45:29.527Z,84.58
2022-10-07T02:48:05.850Z,84.65
2022-10-07T02:50:42.554Z,84.70
2022-10-07T02:53:17.537Z,84.73
2022-10-07T02:55:53.629Z,84.72
2022-10-07T02:58:28.417Z,84.82
2022-10-07T03:01:04.318Z,84.83
2022-10-07T03:03:37.737Z,84.87
2022-10-07T03:06:12.797Z,84.87
2022-10-07T03:08:48.078Z,84.98
2022-10-07T03:11:21.490Z,84.98
2022-10-07T03:13:54.984Z,84.98
2022-10-07T03:16:28.254Z,85.07
2022-10-07T03:19:01.767Z,84.96
2022-10-07T03:21:36.529Z,84.91
2022-10-07T03:24:09.988Z,84.74
2022-10-07T03:26:44.859Z,84.72
2022-10-07T03:29:19.918Z,84.72
2022-10-07T03:31:54.876Z,84.64
2022-10-07T03:34:28.690Z,84.48
2022-10-07T03:37:02.364Z,84.49
2022-10-07T03:39:35.965Z,84.37
2022-10-07T03:42:09.880Z,84.08
2022-10-07T03:44:43.865Z,83.81
2022-10-07T03:47:17.795Z,83.74
2022-10-07T03:49:52.101Z,83.70
2022-10-07T03:52:25.191Z,83.63
2022-10-07T03:54:58.770Z,83.55
2022-10-07T03:57:50.033Z,83.45
2022-10-07T04:00:24.987Z,83.47
2022-10-07T04:02:59.177Z,83.50
2022-10-07T04:05:32.806Z,83.56
2022-10-07T04:08:06.954Z,83.56
2022-10-07T04:10:40.426Z,83.46
2022-10-07T04:13:13.598Z,83.43
2022-10-07T04:15:46.977Z,83.39
2022-10-07T04:18:20.474Z,83.40
2022-10-07T04:20:55.167Z,83.31
2022-10-07T04:23:28.566Z,83.31
2022-10-07T04:26:02.008Z,83.25
2022-10-07T04:28:35.642Z,83.12
2022-10-07T04:31:14.074Z,83.06
2022-10-07T04:33:49.092Z,82.99
2022-10-07T04:36:25.416Z,82.99
2022-10-07T04:39:13.489Z,82.97
2022-10-07T04:41:48.727Z,82.66
2022-10-07T04:44:23.919Z,82.16
2022-10-07T04:47:02.398Z,81.81
2022-10-07T04:49:35.980Z,81.56
2022-10-07T04:52:13.893Z,81.09
2022-10-07T04:54:47.587Z,80.93
2022-10-07T04:57:21.427Z,80.77
2022-10-07T04:59:55.208Z,80.45
2022-10-07T05:02:28.721Z,80.03
2022-10-07T05:05:02.326Z,79.71
2022-10-07T05:07:35.744Z,79.41
2022-10-07T05:10:11.325Z,79.47
2022-10-07T05:12:45.272Z,79.07
2022-10-07T05:15:18.980Z,78.87
2022-10-07T05:17:54.493Z,78.75
2022-10-07T05:20:29.248Z,78.40
2022-10-07T05:23:03.059Z,78.05
2022-10-07T05:25:36.562Z,78.12
2022-10-07T05:28:09.990Z,77.76
2022-10-07T05:30:44.669Z,77.84
2022-10-07T05:33:19.262Z,77.70
2022-10-07T05:35:52.987Z,77.41
2022-10-07T05:38:26.297Z,77.57
2022-10-07T05:41:01.256Z,77.60
2022-10-07T05:43:38.105Z,77.70
2022-10-07T05:46:14.487Z,78.21
2022-10-07T05:48:51.273Z,78.43
2022-10-07T05:51:26.316Z,78.67
2022-10-07T05:54:01.532Z,78.38
2022-10-07T05:56:37.467Z,77.05
2022-10-07T05:59:11.997Z,76.01
2022-10-07T06:01:46.869Z,74.02
2022-10-07T06:04:22.385Z,70.75
2022-10-07T06:06:57.463Z,68.13
2022-10-07T06:09:49.102Z,67.61
2022-10-07T06:12:41.244Z,66.59
2022-10-07T06:15:16.693Z,66.14
2022-10-07T06:17:52.080Z,67.56
2022-10-07T06:20:25.492Z,68.23
2022-10-07T06:22:59.099Z,69.28
2022-10-07T06:25:32.742Z,69.88
2022-10-07T06:28:06.296Z,69.90
2022-10-07T06:30:42.240Z,70.37
2022-10-07T06:33:16.125Z,69.61
2022-10-07T06:35:50.597Z,70.04
2022-10-07T06:38:24.007Z,70.54
2022-10-07T06:41:01.568Z,70.51
2022-10-07T06:43:37.482Z,69.62
2022-10-07T06:46:15.224Z,69.87
2022-10-07T06:48:50.643Z,69.61
2022-10-07T06:51:25.301Z,68.90
2022-10-07T06:53:59.320Z,68.56
2022-10-07T06:56:32.971Z,68.19
2022-10-07T06:59:06.564Z,66.90
2022-10-07T07:01:41.797Z,67.43
2022-10-07T07:04:15.448Z,67.60
2022-10-07T07:06:48.834Z,66.79
2022-10-07T07:09:22.991Z,67.56
2022-10-07T07:11:57.880Z,67.57
2022-10-07T07:14:35.048Z,67.83
2022-10-07T07:17:10.241Z,67.87
2022-10-07T07:19:43.795Z,67.87
2022-10-07T07:22:17.018Z,66.72
2022-10-07T07:24:50.918Z,66.55
2022-10-07T07:27:24.418Z,65.99
2022-10-07T07:29:58.822Z,66.23
2022-10-07T07:32:33.834Z,64.24
2022-10-07T07:35:09.249Z,64.07
2022-10-07T07:37:43.145Z,63.77
2022-10-07T07:40:17.106Z,63.01
2022-10-07T07:42:50.826Z,61.69
2022-10-07T07:45:24.849Z,57.38
2022-10-07T07:47:58.355Z,57.97
2022-10-07T07:50:32.201Z,55.23
2022-10-07T07:53:06.496Z,53.86
2022-10-07T07:55:40.283Z,53.41
2022-10-07T07:58:13.868Z,53.06
2022-10-07T08:00:47.431Z,49.34
2022-10-07T08:03:21.224Z,52.46
2022-10-07T08:05:55.011Z,54.55
2022-10-07T08:08:28.660Z,56.33
2022-10-07T08:11:09.248Z,55.48
2022-10-07T08:13:43.714Z,56.19
2022-10-07T08:16:20.036Z,56.34
2022-10-07T08:18:55.581Z,56.75
2022-10-07T08:21:33.089Z,56.64
2022-10-07T08:24:10.044Z,55.73
2022-10-07T08:26:44.049Z,56.25
2022-10-07T08:29:19.052Z,56.86
2022-10-07T08:31:52.490Z,58.46
2022-10-07T08:34:27.066Z,57.63
2022-10-07T08:37:00.739Z,57.59
2022-10-07T08:39:34.223Z,57.71
2022-10-07T08:42:13.014Z,58.50
2022-10-07T08:44:49.019Z,58.77
2022-10-07T08:47:25.656Z,57.12
2022-10-07T08:50:04.808Z,55.52
2022-10-07T08:52:44.555Z,54.60
2022-10-07T08:55:25.589Z,54.22
2022-10-07T09:01:32.352Z,54.07
2022-10-07T09:04:12.464Z,52.78
2022-10-07T09:06:50.461Z,53.86
2022-10-07T09:09:27.634Z,51.21
2022-10-07T09:12:04.398Z,51.08
2022-10-07T09:14:40.236Z,51.77
2022-10-07T09:17:17.101Z,52.80
2022-10-07T09:19:54.660Z,53.51
2022-10-07T09:22:31.609Z,54.10
2022-10-07T09:25:19.856Z,55.26
2022-10-07T09:27:54.563Z,55.05
2022-10-07T09:30:29.644Z,55.06
2022-10-07T09:33:04.419Z,55.68
2022-10-07T09:35:38.448Z,55.51
2022-10-07T09:38:11.657Z,54.63
2022-10-07T09:41:06.317Z,51.52
2022-10-07T09:43:41.646Z,46.71
2022-10-07T09:46:18.040Z,42.80
2022-10-07T09:48:55.670Z,41.37
2022-10-07T09:51:27.878Z,43.04
2022-10-07T09:54:02.942Z,46.23
2022-10-07T09:56:39.504Z,47.71
2022-10-07T09:59:24.701Z,48.97
2022-10-07T10:01:59.843Z,50.13
2022-10-07T10:04:36.938Z,50.96
2022-10-07T10:07:19.906Z,51.40
2022-10-07T10:09:55.217Z,51.45
2022-10-07T10:12:29.318Z,52.12
2022-10-07T10:15:03.382Z,51.86
2022-10-07T10:17:41.664Z,52.38
2022-10-07T10:20:38.619Z,51.97
2022-10-07T10:23:29.386Z,51.94
2022-10-07T10:28:56.133Z,50.42
2022-10-07T10:31:33.902Z,48.43
2022-10-07T10:34:12.308Z,47.48
2022-10-07T10:36:48.264Z,46.44
2022-10-07T10:39:25.760Z,45.70
2022-10-07T10:42:01.940Z,44.96
2022-10-07T10:44:42.924Z,45.67
2022-10-07T10:47:19.658Z,45.62
2022-10-07T10:49:56.620Z,45.34
2022-10-07T10:52:45.806Z,43.01
2022-10-07T10:55:34.397Z,43.84
2022-10-07T10:58:16.061Z,44.36
2022-10-07T11:00:59.447Z,44.33
2022-10-07T11:03:36.314Z,42.38
2022-10-07T11:06:14.886Z,38.57
2022-10-07T11:08:50.363Z,38.38
2022-10-07T11:11:25.674Z,40.24
2022-10-07T11:14:02.075Z,41.54
2022-10-07T11:16:38.829Z,43.58
2022-10-07T11:19:16.562Z,43.93
2022-10-07T11:21:49.883Z,45.19
2022-10-07T11:24:26.823Z,45.33
2022-10-07T11:27:03.322Z,46.93
2022-10-07T11:29:40.069Z,48.04
2022-10-07T11:32:17.472Z,49.03
2022-10-07T11:34:54.803Z,50.00
2022-10-07T11:37:31.594Z,50.67
2022-10-07T11:40:07.582Z,51.30
2022-10-07T11:42:46.036Z,51.82
2022-10-07T11:45:23.097Z,52.26
2022-10-07T11:47:59.516Z,52.44
2022-10-07T11:50:35.779Z,52.69
2022-10-07T11:53:11.671Z,53.23
2022-10-07T11:55:51.577Z,53.30
2022-10-07T11:58:29.400Z,53.31
2022-10-07T12:01:34.817Z,52.94
2022-10-07T12:04:46.188Z,52.72
2022-10-07T12:07:41.192Z,52.94
2022-10-07T12:13:46.514Z,53.01
2022-10-07T12:16:45.051Z,53.09
2022-10-07T12:19:23.486Z,52.83
2022-10-07T12:22:21.638Z,52.59
2022-10-07T12:25:38.320Z,52.69
2022-10-07T12:28:19.021Z,52.51
2022-10-07T12:30:54.927Z,52.54
2022-10-07T12:33:32.197Z,52.85
2022-10-07T12:36:27.960Z,52.90
2022-10-07T12:39:35.464Z,52.86
2022-10-07T12:42:14.118Z,52.89
2022-10-07T12:44:51.403Z,53.16
2022-10-07T12:47:28.282Z,53.27
2022-10-07T12:50:04.922Z,53.43
2022-10-07T12:52:41.307Z,53.69
2022-10-07T12:55:19.533Z,54.05
2022-10-07T12:57:57.604Z,53.67
2022-10-07T13:00:32.858Z,53.20
2022-10-07T13:03:34.664Z,53.28
2022-10-07T13:06:39.579Z,53.37
2022-10-07T13:09:34.310Z,53.35
2022-10-07T13:12:23.266Z,53.66
2022-10-07T13:15:07.306Z,53.73
2022-10-07T13:17:47.540Z,53.84
2022-10-07T13:20:36.831Z,53.67
2022-10-07T13:23:20.906Z,53.58
2022-10-07T13:25:56.580Z,53.37
2022-10-07T13:28:34.227Z,53.71
2022-10-07T13:31:21.324Z,53.68
2022-10-07T13:33:56.126Z,53.82
2022-10-07T13:36:32.595Z,53.72
2022-10-07T13:39:21.822Z,53.93
2022-10-07T13:41:58.271Z,54.03
2022-10-07T13:44:33.357Z,54.03
2022-10-07T13:47:10.284Z,54.12
2022-10-07T13:49:47.211Z,54.35
2022-10-07T13:52:24.140Z,54.35
2022-10-07T13:54:57.665Z,54.60
2022-10-07T13:57:35.265Z,54.64
2022-10-07T14:00:12.773Z,54.74
2022-10-07T14:02:47.082Z,54.80
2022-10-07T14:05:24.057Z,54.87
2022-10-07T14:07:59.184Z,54.96
2022-10-07T14:10:34.851Z,55.17
2022-10-07T14:13:09.783Z,55.53
2022-10-07T14:18:27.681Z,56.14
2022-10-07T14:21:13.072Z,56.24
2022-10-07T14:23:48.391Z,56.38
2022-10-07T14:26:21.917Z,56.31
2022-10-07T14:28:55.182Z,56.23
2022-10-07T14:31:46.734Z,56.32
2022-10-07T14:34:38.908Z,56.44
2022-10-07T14:37:15.855Z,56.89
2022-10-07T14:39:50.849Z,57.32
2022-10-07T14:42:26.334Z,57.77
2022-10-07T14:45:01.743Z,58.27
2022-10-07T14:47:37.015Z,58.52
2022-10-07T14:50:13.013Z,58.74
2022-10-07T14:52:49.427Z,59.23
2022-10-07T14:55:25.956Z,59.39
2022-10-07T14:57:59.236Z,59.81
2022-10-07T15:00:38.710Z,59.98
2022-10-07T15:03:08.728Z,59.98
2022-10-07T15:05:42.305Z,59.90
2022-10-07T15:08:16.158Z,60.14
2022-10-07T15:10:49.532Z,60.33
2022-10-07T15:13:23.217Z,60.59
2022-10-07T15:15:56.734Z,60.73
2022-10-07T15:18:30.401Z,61.19
2022-10-07T15:21:04.261Z,61.40
2022-10-07T15:23:37.618Z,61.52
2022-10-07T15:26:12.110Z,61.52
2022-10-07T15:28:45.295Z,61.63
2022-10-07T15:31:19.140Z,61.90
2022-10-07T15:33:54.432Z,62.16
2022-10-07T15:36:29.526Z,62.10
2022-10-07T15:39:03.338Z,62.53
2022-10-07T15:41:39.213Z,62.56
2022-10-07T15:44:16.281Z,62.60
2022-10-07T15:46:51.311Z,62.91
2022-10-07T15:49:24.336Z,63.08
2022-10-07T15:51:57.931Z,63.24
2022-10-07T15:54:32.053Z,63.51
2022-10-07T15:57:05.896Z,63.50
2022-10-07T15:59:39.434Z,63.71
2022-10-07T16:02:16.160Z,63.86
2022-10-07T16:04:49.802Z,64.33
2022-10-07T16:07:24.123Z,64.44
2022-10-07T16:09:57.648Z,64.74
2022-10-07T16:12:31.141Z,64.65
2022-10-07T16:15:06.504Z,64.97
2022-10-07T16:17:40.131Z,64.81
2022-10-07T16:20:15.528Z,64.86
2022-10-07T16:22:49.001Z,64.86
2022-10-07T16:25:22.427Z,65.05
2022-10-07T16:28:13.230Z,65.16
2022-10-07T16:30:48.949Z,65.30
2022-10-07T16:33:22.762Z,65.69
2022-10-07T16:35:56.264Z,65.66
2022-10-07T16:38:29.863Z,65.99
2022-10-07T16:41:03.487Z,65.86
2022-10-07T16:43:36.766Z,65.93
2022-10-07T16:46:14.050Z,66.12
2022-10-07T16:48:48.817Z,66.14
2022-10-07T16:51:24.232Z,66.23
2022-10-07T16:54:01.667Z,66.54
2022-10-07T16:56:37.099Z,66.41
2022-10-07T16:59:12.203Z,66.50
2022-10-07T17:01:45.721Z,66.75
2022-10-07T17:04:19.778Z,66.66
2022-10-07T17:06:53.221Z,67.03
2022-10-07T17:09:26.710Z,67.07
2022-10-07T17:12:00.162Z,67.29
2022-10-07T17:14:34.195Z,67.40
2022-10-07T17:17:08.026Z,67.62
2022-10-07T17:19:41.594Z,67.81
2022-10-07T17:22:15.303Z,67.93
2022-10-07T17:24:48.814Z,68.14
2022-10-07T17:27:22.493Z,68.33
2022-10-07T17:29:55.998Z,68.63
2022-10-07T17:32:29.583Z,68.77
2022-10-07T17:35:03.144Z,68.59
2022-10-07T17:37:36.539Z,68.50
2022-10-07T17:40:11.867Z,68.77
2022-10-07T17:42:45.643Z,68.88
2022-10-07T17:45:19.137Z,68.98
2022-10-07T17:47:53.434Z,69.06
2022-10-07T17:50:26.807Z,69.14
2022-10-07T17:53:00.913Z,69.33
2022-10-07T17:55:34.501Z,69.22
2022-10-07T17:58:12.933Z,69.29
2022-10-07T18:00:47.539Z,69.42
2022-10-07T18:03:24.390Z,69.47
2022-10-07T18:05:58.392Z,69.58
2022-10-07T18:08:33.341Z,69.68
2022-10-07T18:11:11.484Z,69.85
2022-10-07T18:14:04.892Z,70.22
2022-10-07T18:16:39.830Z,70.53
2022-10-07T18:19:19.516Z,70.56
2022-10-07T18:21:53.115Z,70.86
2022-10-07T18:24:29.950Z,71.11
2022-10-07T18:27:06.783Z,71.34
2022-10-07T18:29:50.524Z,71.36
2022-10-07T18:32:24.659Z,71.32
2022-10-07T18:34:59.034Z,71.46
2022-10-07T18:40:28.931Z,71.60
2022-10-07T18:43:06.965Z,71.89
2022-10-07T18:45:59.013Z,71.80
